sensor_id;sensor_type;location;lat;lon;timestamp;P1;durP1;ratioP1;P2;durP2;ratioP2
45893;SDS011;31603;51.148;16.932;2022-12-20T00:04:10;58.17;;;25.17;;
45893;SDS011;31603;51.148;16.932;2022-12-20T00:06:39;50.65;;;24.17;;
45893;SDS011;31603;51.148;16.932;2022-12-20T00:09:07;48.60;;;20.67;;
45893;SDS011;31603;51.148;16.932;2022-12-20T00:11:47;55.70;;;23.73;;
45893;SDS011;31603;51.148;16.932;2022-12-20T00:14:17;50.70;;;21.13;;
45893;SDS011;31603;51.148;16.932;2022-12-20T00:16:45;54.42;;;22.73;;
45893;SDS011;31603;51.148;16.932;2022-12-20T00:19:11;51.88;;;20.73;;
45893;SDS011;31603;51.148;16.932;2022-12-20T00:21:38;41.83;;;19.55;;
45893;SDS011;31603;51.148;16.932;2022-12-20T00:24:22;47.90;;;21.80;;
45893;SDS011;31603;51.148;16.932;2022-12-20T00:26:59;47.25;;;20.77;;
45893;SDS011;31603;51.148;16.932;2022-12-20T00:29:28;48.38;;;22.20;;
45893;SDS011;31603;51.148;16.932;2022-12-20T00:34:42;49.53;;;22.48;;
45893;SDS011;31603;51.148;16.932;2022-12-20T00:37:08;49.20;;;19.90;;
45893;SDS011;31603;51.148;16.932;2022-12-20T00:39:43;48.22;;;20.80;;
45893;SDS011;31603;51.148;16.932;2022-12-20T00:42:09;49.30;;;21.25;;
45893;SDS011;31603;51.148;16.932;2022-12-20T00:44:46;46.60;;;20.70;;
45893;SDS011;31603;51.148;16.932;2022-12-20T00:47:16;50.33;;;22.45;;
45893;SDS011;31603;51.148;16.932;2022-12-20T00:49:43;41.00;;;18.83;;
45893;SDS011;31603;51.148;16.932;2022-12-20T00:52:10;45.85;;;19.95;;
45893;SDS011;31603;51.148;16.932;2022-12-20T00:54:37;46.53;;;19.08;;
45893;SDS011;31603;51.148;16.932;2022-12-20T00:57:07;45.05;;;20.10;;
45893;SDS011;31603;51.148;16.932;2022-12-20T00:59:34;40.72;;;20.10;;
45893;SDS011;31603;51.148;16.932;2022-12-20T01:02:05;41.72;;;19.77;;
45893;SDS011;31603;51.148;16.932;2022-12-20T01:04:39;44.08;;;18.58;;
45893;SDS011;31603;51.148;16.932;2022-12-20T01:07:06;42.25;;;19.20;;
45893;SDS011;31603;51.148;16.932;2022-12-20T01:09:32;43.60;;;19.60;;
45893;SDS011;31603;51.148;16.932;2022-12-20T01:12:13;43.70;;;18.83;;
45893;SDS011;31603;51.148;16.932;2022-12-20T01:14:42;43.38;;;20.15;;
45893;SDS011;31603;51.148;16.932;2022-12-20T01:17:09;46.00;;;20.95;;
45893;SDS011;31603;51.148;16.932;2022-12-20T01:19:43;42.97;;;20.20;;
45893;SDS011;31603;51.148;16.932;2022-12-20T01:22:20;41.72;;;18.58;;
45893;SDS011;31603;51.148;16.932;2022-12-20T01:24:46;40.85;;;19.20;;
45893;SDS011;31603;51.148;16.932;2022-12-20T01:27:20;42.53;;;18.67;;
45893;SDS011;31603;51.148;16.932;2022-12-20T01:29:59;41.20;;;18.80;;
45893;SDS011;31603;51.148;16.932;2022-12-20T01:32:37;40.28;;;18.05;;
45893;SDS011;31603;51.148;16.932;2022-12-20T01:35:08;37.35;;;18.60;;
45893;SDS011;31603;51.148;16.932;2022-12-20T01:37:35;37.80;;;17.58;;
45893;SDS011;31603;51.148;16.932;2022-12-20T01:40:14;40.40;;;19.60;;
45893;SDS011;31603;51.148;16.932;2022-12-20T01:42:41;43.67;;;18.67;;
45893;SDS011;31603;51.148;16.932;2022-12-20T01:45:14;38.10;;;15.65;;
45893;SDS011;31603;51.148;16.932;2022-12-20T01:47:48;37.13;;;16.85;;
45893;SDS011;31603;51.148;16.932;2022-12-20T01:50:27;38.35;;;16.77;;
45893;SDS011;31603;51.148;16.932;2022-12-20T01:52:56;38.83;;;17.23;;
45893;SDS011;31603;51.148;16.932;2022-12-20T01:55:30;42.13;;;18.10;;
45893;SDS011;31603;51.148;16.932;2022-12-20T01:58:09;39.17;;;16.92;;
45893;SDS011;31603;51.148;16.932;2022-12-20T02:00:52;39.45;;;17.75;;
45893;SDS011;31603;51.148;16.932;2022-12-20T02:03:19;44.10;;;17.98;;
45893;SDS011;31603;51.148;16.932;2022-12-20T02:08:55;39.05;;;16.70;;
45893;SDS011;31603;51.148;16.932;2022-12-20T02:11:44;39.90;;;17.73;;
45893;SDS011;31603;51.148;16.932;2022-12-20T02:14:41;34.38;;;16.00;;
45893;SDS011;31603;51.148;16.932;2022-12-20T02:17:25;36.00;;;16.95;;
45893;SDS011;31603;51.148;16.932;2022-12-20T02:23:15;37.72;;;15.73;;
45893;SDS011;31603;51.148;16.932;2022-12-20T02:26:01;35.28;;;15.27;;
45893;SDS011;31603;51.148;16.932;2022-12-20T02:28:44;41.28;;;17.27;;
45893;SDS011;31603;51.148;16.932;2022-12-20T02:31:33;33.80;;;16.67;;
45893;SDS011;31603;51.148;16.932;2022-12-20T02:34:05;33.95;;;16.73;;
45893;SDS011;31603;51.148;16.932;2022-12-20T02:36:38;36.50;;;16.00;;
45893;SDS011;31603;51.148;16.932;2022-12-20T02:39:07;35.30;;;16.45;;
45893;SDS011;31603;51.148;16.932;2022-12-20T02:41:37;39.97;;;16.67;;
45893;SDS011;31603;51.148;16.932;2022-12-20T02:44:13;38.78;;;15.88;;
45893;SDS011;31603;51.148;16.932;2022-12-20T02:47:03;34.33;;;16.00;;
45893;SDS011;31603;51.148;16.932;2022-12-20T02:49:33;38.78;;;17.52;;
45893;SDS011;31603;51.148;16.932;2022-12-20T02:52:19;35.78;;;16.15;;
45893;SDS011;31603;51.148;16.932;2022-12-20T02:54:50;33.03;;;15.73;;
45893;SDS011;31603;51.148;16.932;2022-12-20T02:57:32;33.80;;;16.48;;
45893;SDS011;31603;51.148;16.932;2022-12-20T03:00:12;33.65;;;16.35;;
45893;SDS011;31603;51.148;16.932;2022-12-20T03:02:49;36.38;;;15.40;;
45893;SDS011;31603;51.148;16.932;2022-12-20T03:05:34;36.00;;;16.55;;
45893;SDS011;31603;51.148;16.932;2022-12-20T03:08:03;37.17;;;16.35;;
45893;SDS011;31603;51.148;16.932;2022-12-20T03:10:30;34.72;;;14.85;;
45893;SDS011;31603;51.148;16.932;2022-12-20T03:12:58;32.70;;;15.02;;
45893;SDS011;31603;51.148;16.932;2022-12-20T03:15:29;33.63;;;15.05;;
45893;SDS011;31603;51.148;16.932;2022-12-20T03:17:59;32.15;;;14.88;;
45893;SDS011;31603;51.148;16.932;2022-12-20T03:20:28;36.30;;;17.00;;
45893;SDS011;31603;51.148;16.932;2022-12-20T03:23:04;29.55;;;14.15;;
45893;SDS011;31603;51.148;16.932;2022-12-20T03:25:35;33.50;;;14.13;;
45893;SDS011;31603;51.148;16.932;2022-12-20T03:28:19;34.15;;;16.88;;
45893;SDS011;31603;51.148;16.932;2022-12-20T03:30:46;37.00;;;15.20;;
45893;SDS011;31603;51.148;16.932;2022-12-20T03:33:23;38.60;;;15.55;;
45893;SDS011;31603;51.148;16.932;2022-12-20T03:35:51;33.60;;;15.40;;
45893;SDS011;31603;51.148;16.932;2022-12-20T03:38:28;32.95;;;14.80;;
45893;SDS011;31603;51.148;16.932;2022-12-20T03:41:26;34.38;;;15.75;;
45893;SDS011;31603;51.148;16.932;2022-12-20T03:43:57;34.15;;;16.63;;
45893;SDS011;31603;51.148;16.932;2022-12-20T03:46:44;34.97;;;15.80;;
45893;SDS011;31603;51.148;16.932;2022-12-20T03:52:01;33.45;;;14.82;;
45893;SDS011;31603;51.148;16.932;2022-12-20T03:54:46;33.53;;;15.43;;
45893;SDS011;31603;51.148;16.932;2022-12-20T04:02:44;30.38;;;14.57;;
45893;SDS011;31603;51.148;16.932;2022-12-20T04:05:12;33.40;;;14.52;;
45893;SDS011;31603;51.148;16.932;2022-12-20T04:07:45;32.78;;;14.52;;
45893;SDS011;31603;51.148;16.932;2022-12-20T04:10:12;30.00;;;14.85;;
45893;SDS011;31603;51.148;16.932;2022-12-20T04:12:44;32.78;;;14.50;;
45893;SDS011;31603;51.148;16.932;2022-12-20T04:15:11;33.90;;;14.65;;
45893;SDS011;31603;51.148;16.932;2022-12-20T04:17:41;31.67;;;15.45;;
45893;SDS011;31603;51.148;16.932;2022-12-20T04:20:17;34.03;;;14.93;;
45893;SDS011;31603;51.148;16.932;2022-12-20T04:22:44;31.42;;;15.00;;
45893;SDS011;31603;51.148;16.932;2022-12-20T04:25:24;31.92;;;14.52;;
45893;SDS011;31603;51.148;16.932;2022-12-20T04:28:17;32.70;;;14.50;;
45893;SDS011;31603;51.148;16.932;2022-12-20T04:31:00;32.15;;;14.18;;
45893;SDS011;31603;51.148;16.932;2022-12-20T04:33:41;29.52;;;14.23;;
45893;SDS011;31603;51.148;16.932;2022-12-20T04:36:19;31.02;;;14.55;;
45893;SDS011;31603;51.148;16.932;2022-12-20T04:38:48;29.77;;;14.52;;
45893;SDS011;31603;51.148;16.932;2022-12-20T04:41:18;31.35;;;14.70;;
45893;SDS011;31603;51.148;16.932;2022-12-20T04:43:48;32.20;;;14.95;;
45893;SDS011;31603;51.148;16.932;2022-12-20T04:46:15;31.58;;;14.27;;
45893;SDS011;31603;51.148;16.932;2022-12-20T04:48:43;35.58;;;16.63;;
45893;SDS011;31603;51.148;16.932;2022-12-20T04:51:09;35.65;;;16.52;;
45893;SDS011;31603;51.148;16.932;2022-12-20T04:53:39;35.10;;;15.23;;
45893;SDS011;31603;51.148;16.932;2022-12-20T04:56:15;31.55;;;15.15;;
45893;SDS011;31603;51.148;16.932;2022-12-20T04:58:43;34.78;;;15.15;;
45893;SDS011;31603;51.148;16.932;2022-12-20T05:01:10;34.38;;;15.88;;
45893;SDS011;31603;51.148;16.932;2022-12-20T05:03:44;40.80;;;15.30;;
45893;SDS011;31603;51.148;16.932;2022-12-20T05:06:11;35.72;;;15.68;;
45893;SDS011;31603;51.148;16.932;2022-12-20T05:08:39;33.58;;;16.10;;
45893;SDS011;31603;51.148;16.932;2022-12-20T05:11:09;34.03;;;14.82;;
45893;SDS011;31603;51.148;16.932;2022-12-20T05:13:36;35.05;;;15.75;;
45893;SDS011;31603;51.148;16.932;2022-12-20T05:16:20;39.13;;;17.27;;
45893;SDS011;31603;51.148;16.932;2022-12-20T05:18:46;38.50;;;17.40;;
45893;SDS011;31603;51.148;16.932;2022-12-20T05:24:18;36.30;;;17.08;;
45893;SDS011;31603;51.148;16.932;2022-12-20T05:27:02;36.40;;;16.10;;
45893;SDS011;31603;51.148;16.932;2022-12-20T05:29:28;37.63;;;16.33;;
45893;SDS011;31603;51.148;16.932;2022-12-20T05:31:57;45.88;;;16.08;;
45893;SDS011;31603;51.148;16.932;2022-12-20T05:34:25;35.45;;;14.88;;
45893;SDS011;31603;51.148;16.932;2022-12-20T05:36:52;39.80;;;16.73;;
45893;SDS011;31603;51.148;16.932;2022-12-20T05:39:20;34.22;;;15.90;;
45893;SDS011;31603;51.148;16.932;2022-12-20T05:41:49;35.28;;;16.10;;
45893;SDS011;31603;51.148;16.932;2022-12-20T05:44:19;36.78;;;14.98;;
45893;SDS011;31603;51.148;16.932;2022-12-20T05:46:46;33.95;;;14.60;;
45893;SDS011;31603;51.148;16.932;2022-12-20T05:49:12;37.97;;;18.15;;
45893;SDS011;31603;51.148;16.932;2022-12-20T05:52:14;34.72;;;14.80;;
45893;SDS011;31603;51.148;16.932;2022-12-20T05:54:42;38.22;;;17.05;;
45893;SDS011;31603;51.148;16.932;2022-12-20T05:57:09;39.40;;;16.50;;
45893;SDS011;31603;51.148;16.932;2022-12-20T05:59:37;35.63;;;16.52;;
45893;SDS011;31603;51.148;16.932;2022-12-20T06:02:05;40.47;;;18.13;;
45893;SDS011;31603;51.148;16.932;2022-12-20T06:04:33;38.05;;;18.00;;
45893;SDS011;31603;51.148;16.932;2022-12-20T06:06:59;38.17;;;17.20;;
45893;SDS011;31603;51.148;16.932;2022-12-20T06:09:26;40.83;;;17.15;;
45893;SDS011;31603;51.148;16.932;2022-12-20T06:11:55;36.65;;;17.05;;
45893;SDS011;31603;51.148;16.932;2022-12-20T06:14:22;36.45;;;17.27;;
45893;SDS011;31603;51.148;16.932;2022-12-20T06:16:55;38.75;;;18.40;;
45893;SDS011;31603;51.148;16.932;2022-12-20T06:19:24;36.58;;;16.88;;
45893;SDS011;31603;51.148;16.932;2022-12-20T06:22:10;38.22;;;17.27;;
45893;SDS011;31603;51.148;16.932;2022-12-20T06:24:37;43.08;;;18.30;;
45893;SDS011;31603;51.148;16.932;2022-12-20T06:27:11;42.33;;;17.73;;
45893;SDS011;31603;51.148;16.932;2022-12-20T06:29:37;38.90;;;18.02;;
45893;SDS011;31603;51.148;16.932;2022-12-20T06:32:15;40.83;;;17.38;;
45893;SDS011;31603;51.148;16.932;2022-12-20T06:34:45;36.22;;;17.73;;
45893;SDS011;31603;51.148;16.932;2022-12-20T06:37:12;36.65;;;16.52;;
45893;SDS011;31603;51.148;16.932;2022-12-20T06:40:02;39.08;;;16.90;;
45893;SDS011;31603;51.148;16.932;2022-12-20T06:42:46;36.17;;;16.63;;
45893;SDS011;31603;51.148;16.932;2022-12-20T06:45:23;35.33;;;16.65;;
45893;SDS011;31603;51.148;16.932;2022-12-20T06:47:49;32.83;;;16.90;;
45893;SDS011;31603;51.148;16.932;2022-12-20T06:50:32;40.67;;;18.38;;
45893;SDS011;31603;51.148;16.932;2022-12-20T06:52:58;42.38;;;18.60;;
45893;SDS011;31603;51.148;16.932;2022-12-20T06:55:27;45.10;;;19.00;;
45893;SDS011;31603;51.148;16.932;2022-12-20T07:01:11;46.28;;;18.60;;
45893;SDS011;31603;51.148;16.932;2022-12-20T07:03:52;44.28;;;19.10;;
45893;SDS011;31603;51.148;16.932;2022-12-20T07:06:21;45.33;;;19.95;;
45893;SDS011;31603;51.148;16.932;2022-12-20T07:08:47;46.00;;;19.65;;
45893;SDS011;31603;51.148;16.932;2022-12-20T07:11:15;49.20;;;19.77;;
45893;SDS011;31603;51.148;16.932;2022-12-20T07:13:54;46.63;;;19.77;;
45893;SDS011;31603;51.148;16.932;2022-12-20T07:16:28;46.40;;;19.80;;
45893;SDS011;31603;51.148;16.932;2022-12-20T07:19:05;40.80;;;18.55;;
45893;SDS011;31603;51.148;16.932;2022-12-20T07:21:36;44.30;;;19.05;;
45893;SDS011;31603;51.148;16.932;2022-12-20T07:24:05;45.53;;;18.27;;
45893;SDS011;31603;51.148;16.932;2022-12-20T07:26:32;42.28;;;20.23;;
45893;SDS011;31603;51.148;16.932;2022-12-20T07:29:02;45.03;;;20.08;;
45893;SDS011;31603;51.148;16.932;2022-12-20T07:31:29;55.08;;;21.55;;
45893;SDS011;31603;51.148;16.932;2022-12-20T07:33:57;50.33;;;21.95;;
45893;SDS011;31603;51.148;16.932;2022-12-20T07:36:24;52.83;;;20.58;;
45893;SDS011;31603;51.148;16.932;2022-12-20T07:38:50;51.08;;;21.73;;
45893;SDS011;31603;51.148;16.932;2022-12-20T07:41:17;51.88;;;22.45;;
45893;SDS011;31603;51.148;16.932;2022-12-20T07:43:44;49.13;;;19.85;;
45893;SDS011;31603;51.148;16.932;2022-12-20T07:46:12;53.95;;;23.00;;
45893;SDS011;31603;51.148;16.932;2022-12-20T07:48:41;52.40;;;21.95;;
45893;SDS011;31603;51.148;16.932;2022-12-20T07:51:09;53.65;;;21.38;;
45893;SDS011;31603;51.148;16.932;2022-12-20T07:53:38;48.33;;;21.38;;
45893;SDS011;31603;51.148;16.932;2022-12-20T07:58:38;43.72;;;19.25;;
45893;SDS011;31603;51.148;16.932;2022-12-20T08:01:06;45.97;;;18.92;;
45893;SDS011;31603;51.148;16.932;2022-12-20T08:03:36;44.88;;;20.45;;
45893;SDS011;31603;51.148;16.932;2022-12-20T08:06:10;51.08;;;22.50;;
45893;SDS011;31603;51.148;16.932;2022-12-20T08:08:40;48.45;;;19.75;;
45893;SDS011;31603;51.148;16.932;2022-12-20T08:11:10;49.50;;;19.70;;
45893;SDS011;31603;51.148;16.932;2022-12-20T08:13:37;49.67;;;22.40;;
45893;SDS011;31603;51.148;16.932;2022-12-20T08:16:22;47.83;;;20.63;;
45893;SDS011;31603;51.148;16.932;2022-12-20T08:18:50;50.40;;;21.30;;
45893;SDS011;31603;51.148;16.932;2022-12-20T08:21:17;52.17;;;20.95;;
45893;SDS011;31603;51.148;16.932;2022-12-20T08:23:44;49.80;;;21.65;;
45893;SDS011;31603;51.148;16.932;2022-12-20T08:26:11;59.33;;;24.05;;
45893;SDS011;31603;51.148;16.932;2022-12-20T08:28:37;49.22;;;20.50;;
45893;SDS011;31603;51.148;16.932;2022-12-20T08:31:05;52.38;;;24.08;;
45893;SDS011;31603;51.148;16.932;2022-12-20T08:33:35;51.45;;;22.67;;
45893;SDS011;31603;51.148;16.932;2022-12-20T08:36:04;51.08;;;20.27;;
45893;SDS011;31603;51.148;16.932;2022-12-20T08:38:32;48.17;;;21.23;;
45893;SDS011;31603;51.148;16.932;2022-12-20T08:41:00;39.38;;;18.52;;
45893;SDS011;31603;51.148;16.932;2022-12-20T08:43:27;48.03;;;19.73;;
45893;SDS011;31603;51.148;16.932;2022-12-20T08:45:54;50.17;;;21.13;;
45893;SDS011;31603;51.148;16.932;2022-12-20T08:48:21;47.15;;;20.77;;
45893;SDS011;31603;51.148;16.932;2022-12-20T08:50:52;53.15;;;22.23;;
45893;SDS011;31603;51.148;16.932;2022-12-20T08:53:20;46.17;;;20.90;;
45893;SDS011;31603;51.148;16.932;2022-12-20T08:55:47;50.00;;;22.08;;
45893;SDS011;31603;51.148;16.932;2022-12-20T08:58:16;47.97;;;20.77;;
45893;SDS011;31603;51.148;16.932;2022-12-20T09:00:43;53.33;;;20.92;;
45893;SDS011;31603;51.148;16.932;2022-12-20T09:03:10;45.28;;;19.08;;
45893;SDS011;31603;51.148;16.932;2022-12-20T09:05:43;46.85;;;20.30;;
45893;SDS011;31603;51.148;16.932;2022-12-20T09:08:12;47.13;;;22.05;;
45893;SDS011;31603;51.148;16.932;2022-12-20T09:10:42;51.05;;;21.42;;
45893;SDS011;31603;51.148;16.932;2022-12-20T09:13:08;50.90;;;21.02;;
45893;SDS011;31603;51.148;16.932;2022-12-20T09:15:35;52.47;;;22.63;;
45893;SDS011;31603;51.148;16.932;2022-12-20T09:18:02;54.17;;;21.98;;
45893;SDS011;31603;51.148;16.932;2022-12-20T09:20:29;52.15;;;21.88;;
45893;SDS011;31603;51.148;16.932;2022-12-20T09:22:56;47.50;;;21.45;;
45893;SDS011;31603;51.148;16.932;2022-12-20T09:25:23;52.38;;;21.85;;
45893;SDS011;31603;51.148;16.932;2022-12-20T09:27:51;47.22;;;21.25;;
45893;SDS011;31603;51.148;16.932;2022-12-20T09:30:28;47.17;;;20.25;;
45893;SDS011;31603;51.148;16.932;2022-12-20T09:32:54;50.83;;;20.90;;
45893;SDS011;31603;51.148;16.932;2022-12-20T09:35:21;49.22;;;23.13;;
45893;SDS011;31603;51.148;16.932;2022-12-20T09:37:48;48.92;;;19.98;;
45893;SDS011;31603;51.148;16.932;2022-12-20T09:40:16;43.45;;;18.10;;
45893;SDS011;31603;51.148;16.932;2022-12-20T09:42:45;50.70;;;20.25;;
45893;SDS011;31603;51.148;16.932;2022-12-20T09:45:18;51.08;;;21.30;;
45893;SDS011;31603;51.148;16.932;2022-12-20T09:48:00;50.95;;;21.48;;
45893;SDS011;31603;51.148;16.932;2022-12-20T09:50:49;53.67;;;21.85;;
45893;SDS011;31603;51.148;16.932;2022-12-20T09:53:30;41.60;;;18.30;;
45893;SDS011;31603;51.148;16.932;2022-12-20T09:56:08;48.83;;;21.38;;
45893;SDS011;31603;51.148;16.932;2022-12-20T09:58:56;51.30;;;20.33;;
45893;SDS011;31603;51.148;16.932;2022-12-20T10:01:26;45.53;;;20.00;;
45893;SDS011;31603;51.148;16.932;2022-12-20T10:03:55;47.53;;;21.52;;
45893;SDS011;31603;51.148;16.932;2022-12-20T10:06:29;49.13;;;20.55;;
45893;SDS011;31603;51.148;16.932;2022-12-20T10:09:04;48.47;;;21.15;;
45893;SDS011;31603;51.148;16.932;2022-12-20T10:11:44;45.03;;;19.05;;
45893;SDS011;31603;51.148;16.932;2022-12-20T10:14:27;44.90;;;20.73;;
45893;SDS011;31603;51.148;16.932;2022-12-20T10:17:10;48.78;;;21.38;;
45893;SDS011;31603;51.148;16.932;2022-12-20T10:19:54;44.30;;;19.35;;
45893;SDS011;31603;51.148;16.932;2022-12-20T10:22:35;46.85;;;21.25;;
45893;SDS011;31603;51.148;16.932;2022-12-20T10:25:12;50.67;;;21.17;;
45893;SDS011;31603;51.148;16.932;2022-12-20T10:27:42;45.70;;;20.38;;
45893;SDS011;31603;51.148;16.932;2022-12-20T10:30:12;50.13;;;21.67;;
45893;SDS011;31603;51.148;16.932;2022-12-20T10:32:42;48.80;;;20.48;;
45893;SDS011;31603;51.148;16.932;2022-12-20T10:35:21;46.75;;;20.08;;
45893;SDS011;31603;51.148;16.932;2022-12-20T10:37:58;46.67;;;20.65;;
45893;SDS011;31603;51.148;16.932;2022-12-20T10:40:28;45.95;;;19.80;;
45893;SDS011;31603;51.148;16.932;2022-12-20T10:42:57;49.88;;;22.45;;
45893;SDS011;31603;51.148;16.932;2022-12-20T10:45:28;51.60;;;21.63;;
45893;SDS011;31603;51.148;16.932;2022-12-20T10:48:01;49.50;;;20.23;;
45893;SDS011;31603;51.148;16.932;2022-12-20T10:50:31;53.85;;;21.58;;
45893;SDS011;31603;51.148;16.932;2022-12-20T10:53:14;50.28;;;21.95;;
45893;SDS011;31603;51.148;16.932;2022-12-20T10:55:46;48.33;;;20.60;;
45893;SDS011;31603;51.148;16.932;2022-12-20T10:58:14;53.30;;;23.00;;
45893;SDS011;31603;51.148;16.932;2022-12-20T11:00:42;52.60;;;22.33;;
45893;SDS011;31603;51.148;16.932;2022-12-20T11:03:14;51.05;;;20.15;;
45893;SDS011;31603;51.148;16.932;2022-12-20T11:05:53;55.28;;;22.08;;
45893;SDS011;31603;51.148;16.932;2022-12-20T11:08:22;54.10;;;21.60;;
45893;SDS011;31603;51.148;16.932;2022-12-20T11:10:50;58.80;;;23.00;;
45893;SDS011;31603;51.148;16.932;2022-12-20T11:13:36;53.47;;;20.90;;
45893;SDS011;31603;51.148;16.932;2022-12-20T11:16:03;52.17;;;22.80;;
45893;SDS011;31603;51.148;16.932;2022-12-20T11:18:36;51.75;;;21.15;;
45893;SDS011;31603;51.148;16.932;2022-12-20T11:21:12;51.45;;;21.70;;
45893;SDS011;31603;51.148;16.932;2022-12-20T11:23:49;54.35;;;22.35;;
45893;SDS011;31603;51.148;16.932;2022-12-20T11:26:27;50.88;;;22.02;;
45893;SDS011;31603;51.148;16.932;2022-12-20T11:29:10;51.33;;;21.20;;
45893;SDS011;31603;51.148;16.932;2022-12-20T11:31:51;48.55;;;21.17;;
45893;SDS011;31603;51.148;16.932;2022-12-20T11:34:45;50.75;;;21.92;;
45893;SDS011;31603;51.148;16.932;2022-12-20T11:37:27;47.10;;;22.30;;
45893;SDS011;31603;51.148;16.932;2022-12-20T11:40:41;55.10;;;23.92;;
45893;SDS011;31603;51.148;16.932;2022-12-20T11:43:14;53.05;;;22.50;;
45893;SDS011;31603;51.148;16.932;2022-12-20T11:46:03;60.40;;;24.50;;
45893;SDS011;31603;51.148;16.932;2022-12-20T11:48:45;59.92;;;26.45;;
45893;SDS011;31603;51.148;16.932;2022-12-20T11:51:33;53.60;;;23.98;;
45893;SDS011;31603;51.148;16.932;2022-12-20T11:54:06;55.53;;;25.42;;
45893;SDS011;31603;51.148;16.932;2022-12-20T11:56:38;51.47;;;25.10;;
45893;SDS011;31603;51.148;16.932;2022-12-20T11:59:09;49.90;;;23.73;;
45893;SDS011;31603;51.148;16.932;2022-12-20T12:01:42;55.75;;;24.83;;
45893;SDS011;31603;51.148;16.932;2022-12-20T12:04:15;58.35;;;26.48;;
45893;SDS011;31603;51.148;16.932;2022-12-20T12:06:52;53.38;;;25.60;;
45893;SDS011;31603;51.148;16.932;2022-12-20T12:09:24;56.95;;;24.60;;
45893;SDS011;31603;51.148;16.932;2022-12-20T12:11:57;56.45;;;25.40;;
45893;SDS011;31603;51.148;16.932;2022-12-20T12:17:20;52.65;;;23.60;;
45893;SDS011;31603;51.148;16.932;2022-12-20T12:19:54;66.38;;;26.13;;
45893;SDS011;31603;51.148;16.932;2022-12-20T12:22:28;59.08;;;25.40;;
45893;SDS011;31603;51.148;16.932;2022-12-20T12:25:02;58.33;;;25.50;;
45893;SDS011;31603;51.148;16.932;2022-12-20T12:27:34;61.83;;;25.25;;
45893;SDS011;31603;51.148;16.932;2022-12-20T12:30:00;56.72;;;26.20;;
45893;SDS011;31603;51.148;16.932;2022-12-20T12:32:31;62.72;;;26.48;;
45893;SDS011;31603;51.148;16.932;2022-12-20T12:35:09;56.33;;;24.45;;
45893;SDS011;31603;51.148;16.932;2022-12-20T12:38:02;54.83;;;25.70;;
45893;SDS011;31603;51.148;16.932;2022-12-20T12:41:02;54.85;;;22.58;;
45893;SDS011;31603;51.148;16.932;2022-12-20T12:43:54;50.42;;;20.50;;
45893;SDS011;31603;51.148;16.932;2022-12-20T12:46:21;50.05;;;23.77;;
45893;SDS011;31603;51.148;16.932;2022-12-20T12:48:55;53.00;;;23.52;;
45893;SDS011;31603;51.148;16.932;2022-12-20T12:51:26;50.85;;;23.48;;
45893;SDS011;31603;51.148;16.932;2022-12-20T12:54:11;53.22;;;22.45;;
45893;SDS011;31603;51.148;16.932;2022-12-20T12:56:43;50.08;;;21.90;;
45893;SDS011;31603;51.148;16.932;2022-12-20T13:05:30;53.25;;;23.65;;
45893;SDS011;31603;51.148;16.932;2022-12-20T13:07:58;53.17;;;23.73;;
45893;SDS011;31603;51.148;16.932;2022-12-20T13:13:26;57.47;;;22.77;;
45893;SDS011;31603;51.148;16.932;2022-12-20T13:19:01;50.15;;;22.30;;
45893;SDS011;31603;51.148;16.932;2022-12-20T13:27:24;50.20;;;22.05;;
45893;SDS011;31603;51.148;16.932;2022-12-20T13:36:28;55.50;;;22.85;;
45893;SDS011;31603;51.148;16.932;2022-12-20T13:45:00;58.55;;;24.48;;
45893;SDS011;31603;51.148;16.932;2022-12-20T13:47:31;58.20;;;26.02;;
45893;SDS011;31603;51.148;16.932;2022-12-20T13:53:05;57.08;;;24.58;;
45893;SDS011;31603;51.148;16.932;2022-12-20T13:55:42;57.03;;;23.85;;
45893;SDS011;31603;51.148;16.932;2022-12-20T13:58:12;59.40;;;22.55;;
45893;SDS011;31603;51.148;16.932;2022-12-20T14:00:48;60.55;;;25.05;;
45893;SDS011;31603;51.148;16.932;2022-12-20T14:03:19;54.90;;;23.98;;
45893;SDS011;31603;51.148;16.932;2022-12-20T14:08:26;53.78;;;23.80;;
45893;SDS011;31603;51.148;16.932;2022-12-20T14:11:05;57.97;;;24.13;;
45893;SDS011;31603;51.148;16.932;2022-12-20T14:13:35;52.28;;;22.15;;
45893;SDS011;31603;51.148;16.932;2022-12-20T14:16:06;59.03;;;24.20;;
45893;SDS011;31603;51.148;16.932;2022-12-20T14:18:37;58.80;;;23.15;;
45893;SDS011;31603;51.148;16.932;2022-12-20T14:24:23;50.58;;;22.30;;
45893;SDS011;31603;51.148;16.932;2022-12-20T14:26:50;53.30;;;21.90;;
45893;SDS011;31603;51.148;16.932;2022-12-20T14:29:20;55.30;;;22.83;;
45893;SDS011;31603;51.148;16.932;2022-12-20T14:31:53;55.17;;;23.98;;
45893;SDS011;31603;51.148;16.932;2022-12-20T14:34:20;59.10;;;25.92;;
45893;SDS011;31603;51.148;16.932;2022-12-20T14:36:50;50.65;;;23.02;;
45893;SDS011;31603;51.148;16.932;2022-12-20T14:39:20;51.08;;;23.42;;
45893;SDS011;31603;51.148;16.932;2022-12-20T14:41:54;53.47;;;22.95;;
45893;SDS011;31603;51.148;16.932;2022-12-20T14:44:24;53.33;;;21.60;;
45893;SDS011;31603;51.148;16.932;2022-12-20T14:46:53;52.15;;;22.48;;
45893;SDS011;31603;51.148;16.932;2022-12-20T14:49:22;49.20;;;21.10;;
45893;SDS011;31603;51.148;16.932;2022-12-20T14:52:05;53.22;;;23.20;;
45893;SDS011;31603;51.148;16.932;2022-12-20T14:54:41;53.53;;;21.95;;
45893;SDS011;31603;51.148;16.932;2022-12-20T14:57:19;49.53;;;22.10;;
45893;SDS011;31603;51.148;16.932;2022-12-20T15:00:04;50.72;;;21.73;;
45893;SDS011;31603;51.148;16.932;2022-12-20T15:02:39;57.20;;;23.70;;
45893;SDS011;31603;51.148;16.932;2022-12-20T15:08:20;49.72;;;21.77;;
45893;SDS011;31603;51.148;16.932;2022-12-20T15:10:49;54.08;;;23.15;;
45893;SDS011;31603;51.148;16.932;2022-12-20T15:13:19;52.20;;;21.90;;
45893;SDS011;31603;51.148;16.932;2022-12-20T15:15:52;59.33;;;24.13;;
45893;SDS011;31603;51.148;16.932;2022-12-20T15:18:33;50.90;;;23.48;;
45893;SDS011;31603;51.148;16.932;2022-12-20T15:21:01;53.03;;;23.88;;
45893;SDS011;31603;51.148;16.932;2022-12-20T15:23:32;53.63;;;22.52;;
45893;SDS011;31603;51.148;16.932;2022-12-20T15:26:13;53.90;;;22.50;;
45893;SDS011;31603;51.148;16.932;2022-12-20T15:28:52;59.75;;;26.20;;
45893;SDS011;31603;51.148;16.932;2022-12-20T15:31:21;60.00;;;25.35;;
45893;SDS011;31603;51.148;16.932;2022-12-20T15:33:50;64.72;;;27.80;;
45893;SDS011;31603;51.148;16.932;2022-12-20T15:36:19;59.63;;;24.90;;
45893;SDS011;31603;51.148;16.932;2022-12-20T15:41:18;59.10;;;23.15;;
45893;SDS011;31603;51.148;16.932;2022-12-20T15:43:47;60.42;;;24.73;;
45893;SDS011;31603;51.148;16.932;2022-12-20T15:46:16;59.65;;;25.77;;
45893;SDS011;31603;51.148;16.932;2022-12-20T15:48:54;49.63;;;22.35;;
45893;SDS011;31603;51.148;16.932;2022-12-20T15:51:23;49.65;;;23.63;;
45893;SDS011;31603;51.148;16.932;2022-12-20T15:53:53;56.17;;;24.00;;
45893;SDS011;31603;51.148;16.932;2022-12-20T15:56:21;54.70;;;23.75;;
45893;SDS011;31603;51.148;16.932;2022-12-20T15:58:50;59.90;;;23.80;;